Latest Weather Observations for Cerberus

IDV60901

Issued at 7:11 pm EDT Saturday 10 December 2022 (issued every 10 minutes, with the page automatically refreshed every 10 minutes)

About weather observations | Map of Melbourne area stations | Latest observations for Melbourne area | Other Formats
Station Details ID: 086361 Name: CERBERUS Lat: -38.36 Lon: 145.18 Height: 12.69 m
Data from the previous 72 hours. | See also: Recent months at Cerberus
Date/Time
EDT
Temp
°C
App
Temp
°C
Dew
Point
°C
Rel
Hum
%
Delta-T
°C
Wind Press
QNH
hPa
Press
MSL
hPa
Rain since
9am
mm
Dir  Spd
km/h
Gust
km/h
Spd
kts
Gust
kts
10/07:00pm 21.3 19.9 9.5 47 6.3 SE 7 11 4 6 1011.1 1011.1 0.0
10/06:30pm 21.4 20.1 9.3 46 6.5 SSE 6 9 3 5 1011.4 1011.4 0.0
10/06:00pm 21.8 19.4 8.7 43 6.9 SSE 11 17 6 9 1011.1 1011.1 0.0
10/05:30pm 22.2 19.8 10.0 46 6.6 SSE 13 20 7 11 1010.8 1010.8 0.0
10/05:00pm 22.8 20.4 7.0 36 8.2 SE 9 17 5 9 1011.2 1011.2 0.0
10/04:30pm 22.3 20.0 9.1 43 7.1 SSW 11 19 6 10 1011.6 1011.6 0.0
10/04:00pm 22.6 19.7 8.3 40 7.6 S 13 19 7 10 1012.0 1012.0 0.0
10/03:30pm 23.0 20.7 9.0 41 7.5 SSW 11 20 6 11 1012.4 1012.4 0.0
10/03:00pm 22.1 20.3 9.3 44 6.9 SSE 9 17 5 9 1012.7 1012.7 0.0
10/02:30pm 22.5 20.1 5.4 33 8.5 W 7 17 4 9 1013.3 1013.3 0.0
10/02:00pm 21.6 18.1 5.5 35 8.0 NW 13 26 7 14 1013.9 1013.8 0.0
10/01:30pm 21.2 17.9 6.3 38 7.5 NW 13 24 7 13 1014.2 1014.1 0.0
10/01:00pm 20.7 17.1 6.6 40 7.1 NW 15 22 8 12 1014.6 1014.5 0.0
10/12:30pm 20.7 17.5 7.0 41 7.0 NNW 13 30 7 16 1015.0 1014.9 0.0
10/12:00pm 19.5 18.1 8.8 50 5.6 ENE 6 15 3 8 1015.3 1015.2 0.0
10/11:30am 17.7 15.8 7.7 52 5.1 NE 7 15 4 8 1015.6 1015.5 0.0
10/11:00am - - - - - NE 9 17 5 9 1015.8 1015.7 0.0
10/10:30am 16.1 14.3 7.3 56 4.4 NE 6 11 3 6 1016.1 1016.0 0.0
10/10:00am 15.0 12.3 7.3 60 3.8 NE 11 17 6 9 1016.4 1016.3 0.0
10/09:30am 14.5 12.1 6.8 60 3.7 ENE 9 15 5 8 1016.8 1016.7 0.0
10/09:00am - - - - - NE 7 15 4 8 1016.9 1016.8 0.0
10/08:30am 13.9 11.6 5.8 58 3.8 ENE 7 11 4 6 1016.8 1016.7 0.0
10/08:00am 13.6 11.1 6.7 63 3.3 E 9 15 5 8 1016.7 1016.6 0.0
10/07:30am 13.0 11.0 7.2 68 2.8 ESE 7 15 4 8 1016.4 1016.3 0.0
10/07:00am 9.6 8.4 7.9 89 0.8 SSE 4 7 2 4 1016.3 1016.2 0.0
10/06:30am 6.7 5.6 5.0 89 0.7 CALM 0 0 0 0 1016.1 1016.0 0.0
10/06:00am 5.7 3.5 3.5 86 0.9 SE 4 6 2 3 1016.2 1016.1 0.0
10/05:30am 6.6 4.3 4.8 88 0.8 ESE 6 9 3 5 1016.0 1015.9 0.0
10/05:00am 6.1 4.9 4.7 91 0.6 CALM 0 0 0 0 1016.0 1015.9 0.0
10/04:30am 5.1 3.7 3.3 88 0.7 CALM 0 2 0 1 1016.1 1016.0 0.0
10/04:00am 6.1 4.9 4.4 89 0.7 CALM 0 2 0 1 1016.5 1016.4 0.0
10/03:30am 6.5 5.3 4.7 88 0.8 CALM 0 0 0 0 1016.8 1016.7 0.0
10/03:00am 6.2 5.0 4.4 88 0.8 CALM 0 0 0 0 1016.8 1016.7 0.0
10/02:30am 6.5 5.3 4.7 88 0.8 CALM 0 0 0 0 1017.0 1016.9 0.0
10/02:00am 6.9 5.8 5.1 88 0.8 CALM 0 0 0 0 1017.1 1017.0 0.0
10/01:30am 7.1 6.0 4.9 86 1.0 CALM 0 0 0 0 1017.6 1017.5 0.0
10/01:00am 7.7 6.7 5.5 86 1.0 CALM 0 0 0 0 1017.8 1017.7 0.0
10/12:30am 8.0 7.0 5.5 84 1.1 CALM 0 2 0 1 1018.0 1017.9 0.0
10/12:00am 8.5 7.1 5.6 82 1.3 SE 2 2 1 1 1018.0 1017.9 0.0
 
Date/Time
EDT
Temp
°C
App
Temp
°C
Dew
Point
°C
Rel
Hum
%
Delta-T
°C
Wind Press
QNH
hPa
Press
MSL
hPa
Rain since
9am
mm
Dir  Spd
km/h
Gust
km/h
Spd
kts
Gust
kts
09/11:30pm 9.4 7.7 5.8 78 1.6 S 4 6 2 3 1018.0 1017.9 0.0
09/11:00pm 8.8 7.4 5.4 79 1.5 S 2 6 1 3 1018.2 1018.1 0.0
09/10:30pm 10.1 8.8 5.9 75 1.9 S 2 2 1 1 1018.3 1018.2 0.0
09/10:00pm 10.9 9.2 5.7 70 2.4 S 4 6 2 3 1018.2 1018.1 0.0
09/09:30pm 11.2 9.1 5.9 70 2.5 S 6 7 3 4 1018.2 1018.1 0.0
09/09:00pm 11.9 9.8 6.0 67 2.8 S 6 7 3 4 1018.1 1018.0 0.0
09/08:30pm 12.8 10.5 5.9 63 3.2 S 7 11 4 6 1018.0 1017.9 0.0
09/08:00pm 13.9 11.3 6.0 59 3.8 SSE 9 19 5 10 1017.6 1017.5 0.0
09/07:30pm 14.2 11.0 5.0 54 4.3 SE 11 22 6 12 1017.1 1017.0 0.0
09/07:00pm 14.4 11.1 4.4 51 4.6 SSE 11 19 6 10 1017.4 1017.3 0.0
09/06:30pm 14.7 10.3 5.0 52 4.5 S 17 24 9 13 1017.1 1017.0 0.0
09/06:00pm 14.9 10.9 4.9 51 4.7 SSE 15 22 8 12 1017.2 1017.1 0.0
09/05:30pm 14.4 10.1 5.2 54 4.3 S 17 26 9 14 1017.4 1017.3 0.0
09/05:00pm 15.3 11.2 6.1 54 4.4 S 17 26 9 14 1017.5 1017.4 0.0
09/04:30pm 15.7 11.9 5.9 52 4.7 S 15 26 8 14 1017.7 1017.6 0.0
09/04:00pm 15.6 11.1 6.3 54 4.5 S 19 32 10 17 1017.6 1017.5 0.0
09/03:30pm 15.9 11.3 5.8 51 4.9 S 19 26 10 14 1017.8 1017.7 0.0
09/03:00pm 16.0 11.3 6.2 52 4.7 S 20 33 11 18 1017.8 1017.7 0.0
09/02:30pm 16.0 11.6 6.4 53 4.7 S 19 28 10 15 1018.1 1018.0 0.0
09/02:00pm 15.7 12.0 6.2 53 4.6 S 15 20 8 11 1018.1 1018.0 0.0
09/01:30pm 15.5 11.9 5.1 50 4.9 SSE 13 22 7 12 1018.1 1018.0 0.0
09/01:00pm 15.2 10.9 7.0 58 4.0 S 19 30 10 16 1018.0 1017.9 0.0
09/12:30pm 15.2 11.1 6.0 54 4.4 S 17 26 9 14 1018.1 1018.0 0.0
09/12:00pm 15.6 11.1 6.1 53 4.6 SSW 19 28 10 15 1018.3 1018.2 0.0
09/11:30am 14.8 10.6 3.9 48 5.0 S 15 26 8 14 1018.4 1018.3 0.0
09/11:00am 14.8 10.5 5.1 52 4.5 S 17 28 9 15 1018.4 1018.3 0.0
09/10:30am 14.4 9.7 5.2 54 4.3 S 19 28 10 15 1018.2 1018.1 0.0
09/10:00am 14.3 9.9 4.6 52 4.5 SSW 17 26 9 14 1018.3 1018.2 0.0
09/09:30am 14.0 10.4 4.9 54 4.2 SSW 13 24 7 13 1018.2 1018.1 0.0
09/09:00am 13.2 9.5 4.6 56 3.9 SSW 13 22 7 12 1018.2 1018.1 0.0
09/08:30am 14.4 10.5 5.5 55 4.2 S 15 24 8 13 1018.0 1017.9 0.0
09/08:00am 13.1 9.4 4.3 55 4.0 S 13 20 7 11 1017.7 1017.6 0.0
09/07:30am 12.7 8.8 3.6 54 4.1 SSE 13 20 7 11 1017.2 1017.1 0.0
09/07:00am 12.3 9.0 4.8 60 3.4 S 11 20 6 11 1017.0 1016.9 0.0
09/06:30am 11.4 7.1 3.4 58 3.5 S 15 24 8 13 1016.8 1016.7 0.0
09/06:00am 11.0 7.2 3.8 61 3.2 SSE 13 20 7 11 1016.5 1016.4 0.0
09/05:30am 11.5 7.4 4.5 62 3.2 SSE 15 26 8 14 1016.1 1016.0 0.0
09/05:00am 11.5 7.9 5.2 65 2.9 SSE 13 22 7 12 1015.9 1015.8 0.0
09/04:30am 11.2 8.2 5.9 70 2.5 SSE 11 17 6 9 1016.0 1015.9 0.0
09/04:00am 11.9 7.0 4.2 59 3.5 S 19 35 10 19 1016.2 1016.1 0.0
09/03:30am 11.9 7.5 4.6 61 3.3 SSW 17 24 9 13 1016.5 1016.4 0.0
09/03:00am 11.6 7.3 3.4 57 3.6 SSW 15 24 8 13 1016.5 1016.4 0.0
09/02:30am 11.9 7.3 3.7 57 3.7 S 17 30 9 16 1016.9 1016.8 0.0
09/02:00am 11.6 6.7 3.9 59 3.4 S 19 32 10 17 1017.0 1016.9 0.0
09/01:30am 11.9 7.3 3.9 58 3.6 SSW 17 33 9 18 1017.0 1016.9 0.0
09/01:00am 11.9 7.9 4.9 62 3.2 SSW 15 24 8 13 1017.1 1017.0 0.0
09/12:30am 11.7 7.4 5.3 65 2.9 S 17 33 9 18 1017.1 1017.0 0.0
09/12:00am 12.0 7.5 4.2 59 3.5 SSW 17 28 9 15 1017.1 1017.0 0.0
 
Date/Time
EDT
Temp
°C
App
Temp
°C
Dew
Point
°C
Rel
Hum
%
Delta-T
°C
Wind Press
QNH
hPa
Press
MSL
hPa
Rain since
9am
mm
Dir  Spd
km/h
Gust
km/h
Spd
kts
Gust
kts
08/11:30pm 12.1 7.0 3.9 57 3.7 SSW 20 35 11 19 1017.1 1017.0 0.0
08/11:00pm 12.1 8.0 4.6 60 3.4 SSW 15 26 8 14 1017.2 1017.1 0.0
08/10:30pm 11.9 7.3 3.7 57 3.7 SSW 17 30 9 16 1017.1 1017.0 0.0
08/10:00pm 12.2 7.2 4.7 60 3.4 SSW 20 32 11 17 1016.8 1016.7 0.0
08/09:30pm 12.0 7.6 4.5 60 3.4 SSW 17 28 9 15 1016.6 1016.5 0.0
08/09:00pm 12.0 7.4 5.6 65 3.0 SSW 19 43 10 23 1016.5 1016.4 0.0
08/08:30pm 11.5 7.4 6.0 69 2.6 SSW 17 24 9 13 1016.6 1016.5 0.0
08/08:00pm 12.6 7.8 4.6 58 3.7 SW 19 28 10 15 1016.4 1016.3 0.0
08/07:30pm 12.9 8.1 5.6 61 3.4 SW 20 32 11 17 1016.2 1016.1 0.0
08/07:00pm 13.9 8.5 4.5 53 4.3 SW 22 35 12 19 1015.7 1015.6 0.0
08/06:30pm 13.9 8.2 4.8 54 4.2 SW 24 41 13 22 1015.3 1015.2 0.0
08/06:00pm 13.7 8.7 4.8 55 4.1 SW 20 32 11 17 1015.1 1015.0 0.0
08/05:30pm 13.5 7.8 6.8 64 3.2 SSW 26 44 14 24 1015.2 1015.1 0.0
08/05:00pm 14.2 8.6 5.6 56 4.1 SSW 24 43 13 23 1014.9 1014.8 0.0
08/04:30pm 14.5 8.1 5.0 53 4.4 SW 28 43 15 23 1015.0 1014.9 0.0
08/04:00pm 14.0 10.3 7.8 66 3.1 SSW 17 30 9 16 1014.8 1014.7 0.0
08/03:30pm 14.7 9.3 6.3 57 4.0 SSW 24 39 13 21 1015.0 1014.9 0.0
08/03:00pm 14.6 8.8 6.2 57 4.0 SSW 26 43 14 23 1014.9 1014.8 0.0
08/02:30pm 14.9 10.0 6.7 58 4.0 SSW 22 33 12 18 1014.7 1014.6 0.0
08/02:00pm 14.5 9.6 6.8 60 3.7 SSW 22 35 12 19 1014.8 1014.7 0.0
08/01:30pm 15.3 9.9 6.3 55 4.4 SW 24 41 13 22 1014.6 1014.5 0.0
08/01:00pm 14.6 8.5 4.6 51 4.6 SW 26 37 14 20 1014.6 1014.5 0.0
08/12:30pm 14.5 9.3 5.3 54 4.3 SW 22 33 12 18 1014.5 1014.4 0.0
08/12:00pm 14.0 7.8 4.3 52 4.5 SSW 26 39 14 21 1014.3 1014.2 0.0
08/11:30am 13.9 7.5 5.0 55 4.1 SW 28 39 15 21 1014.2 1014.1 0.0
08/11:00am 11.6 4.5 3.4 57 3.6 SW 30 54 16 29 1013.9 1013.8 0.0
08/10:58am 12.3 5.6 3.8 56 3.8 SW 28 54 15 29 1013.9 1013.8 0.0
08/10:30am 13.4 7.4 5.1 57 3.9 SW 26 39 14 21 1013.4 1013.4 0.0
08/10:00am 13.0 6.8 4.2 55 4.0 SW 26 39 14 21 1013.2 1013.2 0.0
08/09:30am 12.3 6.0 3.8 56 3.8 SW 26 43 14 23 1012.9 1012.9 0.0
08/09:00am 13.1 6.1 4.3 55 4.0 SSW 30 43 16 23 1012.5 1012.5 2.8
08/08:30am 11.9 5.9 5.1 63 3.1 SSW 26 37 14 20 1012.0 1012.0 2.8
08/08:00am 12.3 6.4 4.0 57 3.7 SSW 24 41 13 22 1011.4 1011.4 2.8
08/07:30am 11.6 5.3 3.6 58 3.5 SW 26 39 14 21 1010.9 1010.9 2.8
08/07:00am 11.6 5.1 2.9 55 3.8 SW 26 44 14 24 1010.5 1010.5 2.8
08/06:39am 11.5 4.7 3.3 57 3.6 SW 28 48 15 26 1010.3 1010.3 2.8
08/06:30am 11.4 5.5 3.9 60 3.3 SW 24 44 13 24 1010.2 1010.2 2.8
08/06:00am 10.9 4.6 3.9 62 3.1 SW 26 41 14 22 1010.0 1010.0 2.8
08/05:30am 10.5 4.1 3.3 61 3.1 SW 26 43 14 23 1009.7 1009.7 2.8
08/05:00am 9.4 1.6 5.0 74 2.0 SW 35 59 19 32 1009.7 1009.7 2.8
08/04:53am 10.5 4.0 4.9 68 2.5 WSW 28 59 15 32 1009.4 1009.4 2.6
08/04:30am 10.3 4.4 4.0 65 2.8 WSW 24 37 13 20 1009.2 1009.2 2.6
08/04:00am 10.8 5.4 4.7 66 2.8 SW 22 35 12 19 1009.2 1009.2 2.6
08/03:30am 10.8 4.3 4.9 67 2.7 SW 28 46 15 25 1009.3 1009.3 2.6
08/03:00am 10.8 5.7 2.9 58 3.4 WSW 19 28 10 15 1008.9 1008.9 2.6
08/02:30am 10.7 5.7 3.7 62 3.1 WSW 19 28 10 15 1008.9 1008.9 2.6
08/02:00am 11.2 4.5 3.5 59 3.4 SW 28 50 15 27 1009.1 1009.1 2.6
08/01:37am 11.7 5.0 3.5 57 3.6 SW 28 46 15 25 1009.0 1009.0 2.6
08/01:30am 11.8 5.1 3.8 58 3.6 SW 28 41 15 22 1009.2 1009.2 2.6
08/01:00am 10.2 5.2 3.5 63 2.9 WSW 19 26 10 14 1009.4 1009.4 2.6
08/12:30am 11.5 4.4 3.8 59 3.4 SW 30 54 16 29 1009.5 1009.5 2.6
08/12:00am 11.3 5.6 3.1 57 3.6 WSW 22 33 12 18 1009.2 1009.2 2.6
 
Date/Time
EDT
Temp
°C
App
Temp
°C
Dew
Point
°C
Rel
Hum
%
Delta-T
°C
Wind Press
QNH
hPa
Press
MSL
hPa
Rain since
9am
mm
Dir  Spd
km/h
Gust
km/h
Spd
kts
Gust
kts
07/11:30pm 11.8 5.6 4.5 61 3.3 WSW 26 43 14 23 1009.0 1009.0 2.6
07/11:00pm 12.0 5.3 3.5 56 3.8 WSW 28 46 15 25 1008.7 1008.7 2.6
07/10:30pm 11.7 5.0 3.5 57 3.6 WSW 28 48 15 26 1008.5 1008.5 2.6
07/10:00pm 11.9 4.5 5.1 63 3.1 WSW 33 48 18 26 1008.0 1008.0 2.6
07/09:30pm 11.6 5.1 6.5 71 2.4 WSW 30 52 16 28 1007.4 1007.4 2.6
07/09:26pm 11.8 5.7 6.7 71 2.4 SW 28 52 15 28 1007.3 1007.3 2.6
07/09:00pm 12.0 7.1 8.5 79 1.7 WSW 24 41 13 22 1006.6 1006.6 2.6
07/08:30pm 11.5 6.7 8.9 84 1.3 WSW 24 41 13 22 1006.4 1006.4 2.0
07/08:10pm 11.9 6.5 9.5 85 1.2 SW 28 46 15 25 1006.0 1006.0 2.0
07/08:00pm 12.0 7.8 9.7 86 1.2 WSW 22 43 12 23 1006.1 1006.1 1.8
07/07:30pm 12.4 8.1 9.4 82 1.5 WSW 22 35 12 19 1005.4 1005.4 0.8

Latest Capital City Observations: Canberra | Sydney | Melbourne | Brisbane | Adelaide | Perth | Hobart | Darwin

Other formats

Comma delimited format used in spreadsheet applications
http://www.bom.gov.au/fwo/IDV60901/IDV60901.94898.axf

JavaScript Object Notation format (JSON) in row-major order
http://www.bom.gov.au/fwo/IDV60901/IDV60901.94898.json

Data quality

Most of these data are generated automatically and are frequently updated. Quality checks on data are not normally performed. It is possible for incorrect values to appear. Refer to information at About Latest Weather Observations and please check the disclaimer before using these data.